createdAt,value
2019-01-12T00:01:58.351Z,953.12
2019-01-12T00:04:24.656Z,953.20
2019-01-12T00:06:50.981Z,953.09
2019-01-12T00:09:17.301Z,952.95
2019-01-12T00:11:43.611Z,952.98
2019-01-12T00:14:09.913Z,953.10
2019-01-12T00:16:36.222Z,953.28
2019-01-12T00:19:02.551Z,953.36
2019-01-12T00:21:28.851Z,953.21
2019-01-12T00:23:55.176Z,953.22
2019-01-12T00:26:21.499Z,953.19
2019-01-12T00:28:47.823Z,953.16
2019-01-12T00:31:14.116Z,953.21
2019-01-12T00:33:40.452Z,953.22
2019-01-12T00:36:06.786Z,953.22
2019-01-12T00:38:33.087Z,953.14
2019-01-12T00:40:59.396Z,953.10
2019-01-12T00:43:25.704Z,953.14
2019-01-12T00:45:52.010Z,953.06
2019-01-12T00:48:18.340Z,953.02
2019-01-12T00:50:44.630Z,952.99
2019-01-12T00:53:10.934Z,952.95
2019-01-12T00:55:37.236Z,952.95
2019-01-12T00:58:03.548Z,953.06
2019-01-12T01:00:29.861Z,953.00
2019-01-12T01:02:56.175Z,952.92
2019-01-12T01:05:22.485Z,952.90
2019-01-12T01:07:48.784Z,952.87
2019-01-12T01:10:15.087Z,952.76
2019-01-12T01:12:41.407Z,952.79
2019-01-12T01:15:07.721Z,952.88
2019-01-12T01:17:34.082Z,952.84
2019-01-12T01:20:00.350Z,952.86
2019-01-12T01:22:26.648Z,952.84
2019-01-12T01:24:52.951Z,952.86
2019-01-12T01:27:19.261Z,952.85
2019-01-12T01:29:45.604Z,952.90
2019-01-12T01:32:11.857Z,952.86
2019-01-12T01:34:38.162Z,952.86
2019-01-12T01:37:04.459Z,952.87
2019-01-12T01:39:30.761Z,952.85
2019-01-12T01:41:57.098Z,952.88
2019-01-12T01:44:23.410Z,952.84
2019-01-12T01:46:49.709Z,952.83
2019-01-12T01:49:16.019Z,952.70
2019-01-12T01:51:42.309Z,952.75
2019-01-12T01:54:08.601Z,952.69
2019-01-12T01:56:34.903Z,952.68
2019-01-12T01:59:01.209Z,952.66
2019-01-12T02:01:27.514Z,952.60
2019-01-12T02:03:53.813Z,952.61
2019-01-12T02:06:20.132Z,952.58
2019-01-12T02:08:46.444Z,952.56
2019-01-12T02:11:12.748Z,952.62
2019-01-12T02:13:39.050Z,952.61
2019-01-12T02:16:05.359Z,952.57
2019-01-12T02:18:31.662Z,952.54
2019-01-12T02:20:57.983Z,952.47
2019-01-12T02:23:24.303Z,952.38
2019-01-12T02:25:50.597Z,952.38
2019-01-12T02:28:16.892Z,952.43
2019-01-12T02:30:43.206Z,952.44
2019-01-12T02:33:09.522Z,952.40
2019-01-12T02:35:35.822Z,952.40
2019-01-12T02:38:02.139Z,952.39
2019-01-12T02:40:28.446Z,952.36
2019-01-12T02:42:54.766Z,952.26
2019-01-12T02:45:21.133Z,952.33
2019-01-12T02:47:47.402Z,952.34
2019-01-12T02:50:13.721Z,952.29
2019-01-12T02:52:40.005Z,952.27
2019-01-12T02:55:08.903Z,952.22
2019-01-12T02:57:32.613Z,952.24
2019-01-12T02:59:58.926Z,952.16
2019-01-12T03:02:25.223Z,952.15
2019-01-12T03:04:51.518Z,952.19
2019-01-12T03:07:17.822Z,952.12
2019-01-12T03:09:44.133Z,951.96
2019-01-12T03:12:10.463Z,951.94
2019-01-12T03:14:36.758Z,951.92
2019-01-12T03:17:03.066Z,951.92
2019-01-12T03:19:29.369Z,951.90
2019-01-12T03:21:55.671Z,951.78
2019-01-12T03:24:21.982Z,951.70
2019-01-12T03:26:48.279Z,951.67
2019-01-12T03:29:14.605Z,951.82
2019-01-12T03:31:40.916Z,951.84
2019-01-12T03:34:07.205Z,951.74
2019-01-12T03:36:33.509Z,951.62
2019-01-12T03:38:59.820Z,951.58
2019-01-12T03:41:26.166Z,951.63
2019-01-12T03:43:52.467Z,951.69
2019-01-12T03:46:18.762Z,951.75
2019-01-12T03:48:45.054Z,951.72
2019-01-12T03:51:11.347Z,951.65
2019-01-12T03:53:37.649Z,951.74
2019-01-12T03:56:03.960Z,951.69
2019-01-12T03:58:30.260Z,951.59
2019-01-12T04:00:56.559Z,951.70
2019-01-12T04:03:22.870Z,951.62
2019-01-12T04:05:49.205Z,951.60
2019-01-12T04:08:15.496Z,951.64
2019-01-12T04:10:41.796Z,951.65
2019-01-12T04:13:08.115Z,951.74
2019-01-12T04:15:34.418Z,951.69
2019-01-12T04:18:00.736Z,951.64
2019-01-12T04:20:27.028Z,951.74
2019-01-12T04:22:53.327Z,951.63
2019-01-12T04:25:19.627Z,951.64
2019-01-12T04:27:45.918Z,951.63
2019-01-12T04:30:12.211Z,951.68
2019-01-12T04:32:38.515Z,951.60
2019-01-12T04:35:04.830Z,951.64
2019-01-12T04:37:31.129Z,951.63
2019-01-12T04:39:57.429Z,951.72
2019-01-12T04:42:23.727Z,951.69
2019-01-12T04:44:50.036Z,951.63
2019-01-12T04:47:16.333Z,951.66
2019-01-12T04:49:42.628Z,951.62
2019-01-12T04:52:08.942Z,951.52
2019-01-12T04:54:35.244Z,951.56
2019-01-12T04:57:01.543Z,951.54
2019-01-12T04:59:27.854Z,951.63
2019-01-12T05:01:54.157Z,951.62
2019-01-12T05:04:20.467Z,951.55
2019-01-12T05:06:46.791Z,951.65
2019-01-12T05:09:13.088Z,951.65
2019-01-12T05:11:39.441Z,951.65
2019-01-12T05:14:05.754Z,951.68
2019-01-12T05:16:32.066Z,951.68
2019-01-12T05:18:58.359Z,951.76
2019-01-12T05:21:24.690Z,951.70
2019-01-12T05:23:50.998Z,951.71
2019-01-12T05:26:17.296Z,951.78
2019-01-12T05:28:43.597Z,951.74
2019-01-12T05:31:09.892Z,951.76
2019-01-12T05:33:36.202Z,951.74
2019-01-12T05:36:02.604Z,951.75
2019-01-12T05:38:28.917Z,951.74
2019-01-12T05:40:55.223Z,951.76
2019-01-12T05:43:21.684Z,951.72
2019-01-12T05:45:47.998Z,951.77
2019-01-12T05:48:14.344Z,951.82
2019-01-12T05:50:40.632Z,951.91
2019-01-12T05:53:06.948Z,951.87
2019-01-12T05:55:33.252Z,951.89
2019-01-12T05:57:59.556Z,951.83
2019-01-12T06:00:25.945Z,951.75
2019-01-12T06:02:52.262Z,951.78
2019-01-12T06:05:18.557Z,951.82
2019-01-12T06:07:44.860Z,951.78
2019-01-12T06:10:11.152Z,951.77
2019-01-12T06:12:37.458Z,951.77
2019-01-12T06:15:03.772Z,951.79
2019-01-12T06:17:30.090Z,951.83
2019-01-12T06:19:56.392Z,951.83
2019-01-12T06:22:22.694Z,951.86
2019-01-12T06:24:49.008Z,951.89
2019-01-12T06:27:15.329Z,951.87
2019-01-12T06:29:41.634Z,951.87
2019-01-12T06:32:07.928Z,951.87
2019-01-12T06:34:34.225Z,951.89
2019-01-12T06:37:00.528Z,951.79
2019-01-12T06:39:26.815Z,951.82
2019-01-12T06:41:53.134Z,951.83
2019-01-12T06:44:19.434Z,951.88
2019-01-12T06:46:45.747Z,951.88
2019-01-12T06:49:12.058Z,951.94
2019-01-12T06:51:38.367Z,951.95
2019-01-12T06:54:04.680Z,951.95
2019-01-12T06:56:30.994Z,952.00
2019-01-12T06:58:57.293Z,952.02
2019-01-12T07:01:23.603Z,951.96
2019-01-12T07:03:49.899Z,951.88
2019-01-12T07:06:16.214Z,951.96
2019-01-12T07:08:42.515Z,951.90
2019-01-12T07:11:08.868Z,951.92
2019-01-12T07:13:35.165Z,951.97
2019-01-12T07:16:01.471Z,951.88
2019-01-12T07:18:27.823Z,951.85
2019-01-12T07:20:54.141Z,951.95
2019-01-12T07:23:20.460Z,951.99
2019-01-12T07:25:46.763Z,951.95
2019-01-12T07:28:13.075Z,951.99
2019-01-12T07:30:39.374Z,951.96
2019-01-12T07:33:05.703Z,952.06
2019-01-12T07:35:32.016Z,951.95
2019-01-12T07:37:58.317Z,952.00
2019-01-12T07:40:24.945Z,951.95
2019-01-12T07:42:51.234Z,951.98
2019-01-12T07:45:17.547Z,952.02
2019-01-12T07:47:43.871Z,951.92
2019-01-12T07:50:10.179Z,951.95
2019-01-12T07:52:36.489Z,952.07
2019-01-12T07:55:02.803Z,951.99
2019-01-12T07:57:29.105Z,952.19
2019-01-12T07:59:55.407Z,952.13
2019-01-12T08:02:21.702Z,952.08
2019-01-12T08:04:48.026Z,952.04
2019-01-12T08:07:14.325Z,952.05
2019-01-12T08:09:40.673Z,952.03
2019-01-12T08:12:06.943Z,951.97
2019-01-12T08:14:33.254Z,952.01
2019-01-12T08:16:59.550Z,951.99
2019-01-12T08:19:25.874Z,952.03
2019-01-12T08:21:52.199Z,952.13
2019-01-12T08:24:18.509Z,952.14
2019-01-12T08:26:44.824Z,952.12
2019-01-12T08:29:11.124Z,952.12
2019-01-12T08:31:37.439Z,952.19
2019-01-12T08:34:03.758Z,952.14
2019-01-12T08:36:30.057Z,952.14
2019-01-12T08:38:56.355Z,952.19
2019-01-12T08:41:22.649Z,952.14
2019-01-12T08:43:48.998Z,952.28
2019-01-12T08:46:15.338Z,952.29
2019-01-12T08:48:41.587Z,952.19
2019-01-12T08:51:07.895Z,952.19
2019-01-12T08:53:34.211Z,952.14
2019-01-12T08:56:00.511Z,952.16
2019-01-12T08:58:27.020Z,952.14
2019-01-12T09:00:53.320Z,952.05
2019-01-12T09:03:19.627Z,952.10
2019-01-12T09:05:45.943Z,952.11
2019-01-12T09:08:12.244Z,951.88
2019-01-12T09:10:38.627Z,951.91
2019-01-12T09:13:04.934Z,951.88
2019-01-12T09:15:31.267Z,951.82
2019-01-12T09:17:57.569Z,951.71
2019-01-12T09:20:23.880Z,951.59
2019-01-12T09:22:50.201Z,951.53
2019-01-12T09:25:16.492Z,951.53
2019-01-12T09:27:42.814Z,951.43
2019-01-12T09:30:09.115Z,951.39
2019-01-12T09:32:35.412Z,951.31
2019-01-12T09:35:01.737Z,951.32
2019-01-12T09:37:28.057Z,951.31
2019-01-12T09:39:54.352Z,951.33
2019-01-12T09:42:20.653Z,951.31
2019-01-12T09:44:46.942Z,951.26
2019-01-12T09:47:13.245Z,951.28
2019-01-12T09:49:39.560Z,951.23
2019-01-12T09:52:05.871Z,951.23
2019-01-12T09:54:32.180Z,951.17
2019-01-12T09:56:58.477Z,951.21
2019-01-12T09:59:24.793Z,951.22
2019-01-12T10:01:51.114Z,951.12
2019-01-12T10:04:17.421Z,951.11
2019-01-12T10:06:43.746Z,951.13
2019-01-12T10:09:10.055Z,951.06
2019-01-12T10:11:36.353Z,951.09
2019-01-12T10:14:02.677Z,951.04
2019-01-12T10:16:28.992Z,951.02
2019-01-12T10:18:55.297Z,951.00
2019-01-12T10:21:21.628Z,950.92
2019-01-12T10:23:47.889Z,950.89
2019-01-12T10:26:14.190Z,950.83
2019-01-12T10:28:40.488Z,950.83
2019-01-12T10:31:06.805Z,950.86
2019-01-12T10:33:33.106Z,950.78
2019-01-12T10:35:59.409Z,950.83
2019-01-12T10:38:25.723Z,950.72
2019-01-12T10:40:52.242Z,950.69
2019-01-12T10:43:18.538Z,950.70
2019-01-12T10:45:44.852Z,950.76
2019-01-12T10:48:11.265Z,950.68
2019-01-12T10:50:37.534Z,950.69
2019-01-12T10:53:03.839Z,950.71
2019-01-12T10:55:30.149Z,950.72
2019-01-12T10:57:56.444Z,950.71
2019-01-12T11:00:22.852Z,950.70
2019-01-12T11:02:49.193Z,950.63
2019-01-12T11:05:15.494Z,950.53
2019-01-12T11:07:41.809Z,950.58
2019-01-12T11:10:08.104Z,950.50
2019-01-12T11:12:34.498Z,950.54
2019-01-12T11:15:00.771Z,950.52
2019-01-12T11:17:27.094Z,950.45
2019-01-12T11:19:53.967Z,950.39
2019-01-12T11:22:19.716Z,950.44
2019-01-12T11:31:31.578Z,950.45
2019-01-12T11:33:57.883Z,950.43
2019-01-12T11:36:24.230Z,950.35
2019-01-12T11:38:50.543Z,950.20
2019-01-12T11:41:16.841Z,950.12
2019-01-12T11:43:43.141Z,950.22
2019-01-12T11:46:09.451Z,950.16
2019-01-12T11:48:35.767Z,950.16
2019-01-12T11:51:02.080Z,950.12
2019-01-12T11:53:28.374Z,949.99
2019-01-12T11:55:54.712Z,950.00
2019-01-12T11:58:21.042Z,949.89
2019-01-12T12:00:47.365Z,949.91
2019-01-12T12:03:13.674Z,949.91
2019-01-12T12:05:40.016Z,949.91
2019-01-12T12:08:06.336Z,949.96
2019-01-12T12:10:32.636Z,949.95
2019-01-12T12:12:58.942Z,949.91
2019-01-12T12:15:25.231Z,949.89
2019-01-12T12:17:51.566Z,949.83
2019-01-12T12:20:17.867Z,949.87
2019-01-12T12:22:44.173Z,949.85
2019-01-12T12:25:10.487Z,949.84
2019-01-12T12:27:36.779Z,949.81
2019-01-12T12:30:07.089Z,949.84
2019-01-12T12:32:33.409Z,949.85
2019-01-12T12:34:59.716Z,949.89
2019-01-12T12:37:26.015Z,949.81
2019-01-12T12:39:52.314Z,949.79
2019-01-12T12:42:18.636Z,949.78
2019-01-12T12:44:44.945Z,949.84
2019-01-12T12:47:11.281Z,949.81
2019-01-12T12:49:37.623Z,949.87
2019-01-12T12:52:03.908Z,949.85
2019-01-12T12:54:30.226Z,949.73
2019-01-12T12:56:56.545Z,949.75
2019-01-12T12:59:22.856Z,949.70
2019-01-12T13:01:49.150Z,949.79
2019-01-12T13:04:15.467Z,949.71
2019-01-12T13:06:41.773Z,949.75
2019-01-12T13:09:08.090Z,949.76
2019-01-12T13:11:34.444Z,949.75
2019-01-12T13:14:00.749Z,949.74
2019-01-12T13:16:27.083Z,949.81
2019-01-12T13:18:53.362Z,949.84
2019-01-12T13:21:19.682Z,949.78
2019-01-12T13:23:46.022Z,949.69
2019-01-12T13:26:12.332Z,949.74
2019-01-12T13:28:38.647Z,949.71
2019-01-12T13:31:04.951Z,949.82
2019-01-12T13:33:31.243Z,949.87
2019-01-12T13:35:57.559Z,949.79
2019-01-12T13:38:23.875Z,949.69
2019-01-12T13:40:50.184Z,949.75
2019-01-12T13:43:16.478Z,949.71
2019-01-12T13:45:42.776Z,949.82
2019-01-12T13:48:09.092Z,949.77
2019-01-12T13:50:35.387Z,949.78
2019-01-12T13:53:01.686Z,949.80
2019-01-12T13:55:27.991Z,949.82
2019-01-12T13:57:54.302Z,949.82
2019-01-12T14:00:20.965Z,949.89
2019-01-12T14:02:47.227Z,949.81
2019-01-12T14:05:13.538Z,949.84
2019-01-12T14:07:39.851Z,949.83
2019-01-12T14:10:06.160Z,949.84
2019-01-12T14:12:32.498Z,949.88
2019-01-12T14:14:58.811Z,949.93
2019-01-12T14:17:25.109Z,949.92
2019-01-12T14:19:52.496Z,949.90
2019-01-12T14:22:17.727Z,949.91
2019-01-12T14:24:44.030Z,949.90
2019-01-12T14:27:10.324Z,949.85
2019-01-12T14:29:36.622Z,949.89
2019-01-12T14:32:02.930Z,949.76
2019-01-12T14:34:29.261Z,949.77
2019-01-12T14:36:55.585Z,949.81
2019-01-12T14:39:21.921Z,949.91
2019-01-12T14:41:48.210Z,949.87
2019-01-12T14:44:14.521Z,949.82
2019-01-12T14:46:40.826Z,949.81
2019-01-12T14:49:07.153Z,949.82
2019-01-12T14:51:33.467Z,949.79
2019-01-12T14:53:59.786Z,949.86
2019-01-12T14:56:26.097Z,949.81
2019-01-12T14:58:52.399Z,949.78
2019-01-12T15:01:18.718Z,949.79
2019-01-12T15:03:45.048Z,949.86
2019-01-12T15:06:11.358Z,949.85
2019-01-12T15:08:37.655Z,949.86
2019-01-12T15:11:03.965Z,949.91
2019-01-12T15:13:30.272Z,949.95
2019-01-12T15:15:56.558Z,949.90
2019-01-12T15:18:22.900Z,949.92
2019-01-12T15:20:49.216Z,949.98
2019-01-12T15:23:15.529Z,950.02
2019-01-12T15:25:41.834Z,950.10
2019-01-12T15:28:09.484Z,950.06
2019-01-12T15:30:34.465Z,950.02
2019-01-12T15:33:01.591Z,950.01
2019-01-12T15:35:27.912Z,950.03
2019-01-12T15:37:54.258Z,950.06
2019-01-12T15:40:20.569Z,950.02
2019-01-12T15:42:46.871Z,950.07
2019-01-12T15:45:13.204Z,950.08
2019-01-12T15:47:41.846Z,949.99
2019-01-12T15:50:08.177Z,949.97
2019-01-12T15:52:34.471Z,950.07
2019-01-12T15:55:00.768Z,950.07
2019-01-12T15:57:27.093Z,950.10
2019-01-12T15:59:53.384Z,950.16
2019-01-12T16:02:19.702Z,950.13
2019-01-12T16:04:46.002Z,950.19
2019-01-12T16:07:12.335Z,950.27
2019-01-12T16:09:38.642Z,950.25
2019-01-12T16:12:04.937Z,950.29
2019-01-12T16:14:31.243Z,950.29
2019-01-12T16:16:59.970Z,950.31
2019-01-12T16:19:26.305Z,950.32
2019-01-12T16:21:52.616Z,950.43
2019-01-12T16:24:18.927Z,950.42
2019-01-12T16:26:45.244Z,950.39
2019-01-12T16:29:11.572Z,950.41
2019-01-12T16:31:37.860Z,950.34
2019-01-12T16:34:04.160Z,950.39
2019-01-12T16:36:30.477Z,950.41
2019-01-12T16:38:56.777Z,950.41
2019-01-12T16:41:23.098Z,950.43
2019-01-12T16:43:49.388Z,950.41
2019-01-12T16:46:15.693Z,950.48
2019-01-12T16:48:43.125Z,950.47
2019-01-12T16:51:08.298Z,950.51
2019-01-12T16:53:34.596Z,950.40
2019-01-12T16:56:03.090Z,950.41
2019-01-12T16:58:30.578Z,950.31
2019-01-12T17:00:55.749Z,950.35
2019-01-12T17:03:22.069Z,950.32
2019-01-12T17:05:48.384Z,950.39
2019-01-12T17:08:14.686Z,950.33
2019-01-12T17:10:40.992Z,950.31
2019-01-12T17:13:07.282Z,950.34
2019-01-12T17:15:34.892Z,950.33
2019-01-12T17:17:59.924Z,950.36
2019-01-12T17:20:26.235Z,950.41
2019-01-12T17:22:52.553Z,950.34
2019-01-12T17:25:18.855Z,950.37
2019-01-12T17:27:45.223Z,950.37
2019-01-12T17:30:11.464Z,950.39
2019-01-12T17:32:37.766Z,950.36
2019-01-12T17:35:04.086Z,950.31
2019-01-12T17:37:30.399Z,950.33
2019-01-12T17:39:56.704Z,950.29
2019-01-12T17:42:23.015Z,950.32
2019-01-12T17:44:49.326Z,950.27
2019-01-12T17:47:15.643Z,950.30
2019-01-12T17:49:41.944Z,950.38
2019-01-12T17:52:08.235Z,950.39
2019-01-12T17:54:34.545Z,950.46
2019-01-12T17:57:00.853Z,950.45
2019-01-12T17:59:27.148Z,950.44
2019-01-12T18:01:53.448Z,950.51
2019-01-12T18:04:20.149Z,950.48
2019-01-12T18:06:46.457Z,950.42
2019-01-12T18:09:12.757Z,950.40
2019-01-12T18:11:39.059Z,950.38
2019-01-12T18:14:05.360Z,950.33
2019-01-12T18:16:31.670Z,950.27
2019-01-12T18:18:57.967Z,950.36
2019-01-12T18:21:24.278Z,950.32
2019-01-12T18:23:50.638Z,950.28
2019-01-12T18:26:16.942Z,950.32
2019-01-12T18:28:43.240Z,950.26
2019-01-12T18:31:09.555Z,950.29
2019-01-12T18:33:35.868Z,950.30
2019-01-12T18:36:01.953Z,950.22
2019-01-12T18:38:28.248Z,950.25
2019-01-12T18:40:54.555Z,950.29
2019-01-12T18:43:22.096Z,950.23
2019-01-12T18:45:47.345Z,950.24
2019-01-12T18:48:13.593Z,950.21
2019-01-12T18:50:39.896Z,950.21
2019-01-12T18:53:06.209Z,950.23
2019-01-12T18:55:32.558Z,950.22
2019-01-12T18:57:58.875Z,950.17
2019-01-12T19:00:25.193Z,950.17
2019-01-12T19:02:51.544Z,950.15
2019-01-12T19:05:17.807Z,950.08
2019-01-12T19:07:44.112Z,950.14
2019-01-12T19:10:10.417Z,950.16
2019-01-12T19:12:36.738Z,950.22
2019-01-12T19:15:03.035Z,950.16
2019-01-12T19:17:29.352Z,950.14
2019-01-12T19:19:55.664Z,950.13
2019-01-12T19:22:21.996Z,950.15
2019-01-12T19:24:48.290Z,950.13
2019-01-12T19:27:14.608Z,950.23
2019-01-12T19:29:40.913Z,950.23
2019-01-12T19:32:07.219Z,950.19
2019-01-12T19:34:33.530Z,950.24
2019-01-12T19:36:59.829Z,950.26
2019-01-12T19:39:26.152Z,950.20
2019-01-12T19:41:52.477Z,950.24
2019-01-12T19:44:18.744Z,950.21
2019-01-12T19:46:45.040Z,950.29
2019-01-12T19:49:11.346Z,950.22
2019-01-12T19:51:37.631Z,950.17
2019-01-12T19:54:03.929Z,950.12
2019-01-12T19:56:30.244Z,950.21
2019-01-12T19:58:56.549Z,950.19
2019-01-12T20:01:22.850Z,950.20
2019-01-12T20:03:49.170Z,950.21
2019-01-12T20:06:17.193Z,950.21
2019-01-12T20:08:41.787Z,950.20
2019-01-12T20:11:08.085Z,950.15
2019-01-12T20:13:34.400Z,950.16
2019-01-12T20:16:00.694Z,950.15
2019-01-12T20:18:27.012Z,950.11
2019-01-12T20:20:53.323Z,950.10
2019-01-12T20:23:19.620Z,950.10
2019-01-12T20:25:45.925Z,950.05
2019-01-12T20:28:12.229Z,949.99
2019-01-12T20:30:45.964Z,949.97
2019-01-12T20:33:12.271Z,949.88
2019-01-12T20:35:38.586Z,949.90
2019-01-12T20:38:04.884Z,949.77
2019-01-12T20:40:31.195Z,949.88
2019-01-12T20:42:57.507Z,949.83
2019-01-12T20:45:23.812Z,949.77
2019-01-12T20:47:50.119Z,949.77
2019-01-12T20:50:19.464Z,949.68
2019-01-12T20:52:43.067Z,949.61
2019-01-12T20:55:09.372Z,949.59
2019-01-12T20:57:35.688Z,949.55
2019-01-12T21:00:02.001Z,949.54
2019-01-12T21:02:28.298Z,949.51
2019-01-12T21:04:54.604Z,949.50
2019-01-12T21:07:20.923Z,949.51
2019-01-12T21:09:47.253Z,949.47
2019-01-12T21:12:13.549Z,949.42
2019-01-12T21:14:39.900Z,949.40
2019-01-12T21:17:06.182Z,949.41
2019-01-12T21:19:32.529Z,949.43
2019-01-12T21:21:58.850Z,949.38
2019-01-12T21:24:25.164Z,949.44
2019-01-12T21:26:51.431Z,949.41
2019-01-12T21:29:17.734Z,949.38
2019-01-12T21:31:44.046Z,949.40
2019-01-12T21:34:10.352Z,949.40
2019-01-12T21:36:36.645Z,949.42
2019-01-12T21:39:02.962Z,949.42
2019-01-12T21:41:29.265Z,949.43
2019-01-12T21:43:55.568Z,949.34
2019-01-12T21:46:21.878Z,949.35
2019-01-12T21:48:48.195Z,949.25
2019-01-12T21:51:14.494Z,949.34
2019-01-12T21:53:40.799Z,949.33
2019-01-12T21:56:07.091Z,949.33
2019-01-12T21:58:33.411Z,949.32
2019-01-12T22:00:59.714Z,949.26
2019-01-12T22:03:26.013Z,949.29
2019-01-12T22:05:52.322Z,949.28
2019-01-12T22:08:18.637Z,949.23
2019-01-12T22:10:47.466Z,949.24
2019-01-12T22:13:13.752Z,949.21
2019-01-12T22:15:40.064Z,949.18
2019-01-12T22:18:06.372Z,949.16
2019-01-12T22:20:32.709Z,949.14
2019-01-12T22:22:59.019Z,949.13
2019-01-12T22:25:25.317Z,949.10
2019-01-12T22:27:51.657Z,949.11
2019-01-12T22:30:17.975Z,949.03
2019-01-12T22:32:44.319Z,949.01
2019-01-12T22:35:10.644Z,949.01
2019-01-12T22:37:36.934Z,948.93
2019-01-12T22:40:03.232Z,948.93
2019-01-12T22:42:32.132Z,948.92
2019-01-12T22:44:58.437Z,948.95
2019-01-12T22:47:24.700Z,948.92
2019-01-12T22:49:51.007Z,948.90
2019-01-12T22:52:17.380Z,948.91
2019-01-12T22:54:43.681Z,949.00
2019-01-12T22:57:10.012Z,948.97
2019-01-12T22:59:39.843Z,948.88
2019-01-12T23:02:06.121Z,948.88
2019-01-12T23:04:34.600Z,948.83
2019-01-12T23:06:58.899Z,948.77
2019-01-12T23:09:28.281Z,948.82
2019-01-12T23:11:54.892Z,948.83
2019-01-12T23:14:21.142Z,948.81
2019-01-12T23:16:47.461Z,948.76
2019-01-12T23:19:13.763Z,948.74
2019-01-12T23:21:40.068Z,948.74
2019-01-12T23:24:06.387Z,948.74
2019-01-12T23:26:32.700Z,948.76
2019-01-12T23:28:59.009Z,948.84
2019-01-12T23:31:25.334Z,948.83
2019-01-12T23:33:51.639Z,948.81
2019-01-12T23:36:17.985Z,948.83
2019-01-12T23:38:44.304Z,948.83
2019-01-12T23:41:10.648Z,948.76
2019-01-12T23:43:36.957Z,948.74
2019-01-12T23:46:03.297Z,948.71
2019-01-12T23:48:29.608Z,948.73
2019-01-12T23:50:55.910Z,948.74
2019-01-12T23:53:22.239Z,948.74
2019-01-12T23:55:48.524Z,948.70
2019-01-12T23:58:14.825Z,948.62
